sensor_id;sensor_type;location;lat;lon;timestamp;temperature;humidity
29093;DHT22;16167;48.768;14.984;2024-02-15T00:00:22;5.70;80.20
29093;DHT22;16167;48.768;14.984;2024-02-15T00:02:52;5.70;80.30
29093;DHT22;16167;48.768;14.984;2024-02-15T00:05:21;5.80;85.90
29093;DHT22;16167;48.768;14.984;2024-02-15T00:07:49;5.80;81.50
29093;DHT22;16167;48.768;14.984;2024-02-15T00:10:17;5.70;78.70
29093;DHT22;16167;48.768;14.984;2024-02-15T00:12:45;5.70;81.60
29093;DHT22;16167;48.768;14.984;2024-02-15T00:15:16;5.70;79.30
29093;DHT22;16167;48.768;14.984;2024-02-15T00:17:46;5.70;82.50
29093;DHT22;16167;48.768;14.984;2024-02-15T00:20:15;5.70;84.10
29093;DHT22;16167;48.768;14.984;2024-02-15T00:22:44;5.70;82.00
29093;DHT22;16167;48.768;14.984;2024-02-15T00:25:12;5.70;83.20
29093;DHT22;16167;48.768;14.984;2024-02-15T00:27:40;5.70;83.70
29093;DHT22;16167;48.768;14.984;2024-02-15T00:30:10;5.70;81.00
29093;DHT22;16167;48.768;14.984;2024-02-15T00:32:40;5.70;86.80
29093;DHT22;16167;48.768;14.984;2024-02-15T00:35:08;5.70;90.00
29093;DHT22;16167;48.768;14.984;2024-02-15T00:37:38;5.80;88.40
29093;DHT22;16167;48.768;14.984;2024-02-15T00:40:07;5.80;88.60
29093;DHT22;16167;48.768;14.984;2024-02-15T00:42:35;5.80;88.30
29093;DHT22;16167;48.768;14.984;2024-02-15T00:45:04;5.80;90.70
29093;DHT22;16167;48.768;14.984;2024-02-15T00:47:35;5.80;89.00
29093;DHT22;16167;48.768;14.984;2024-02-15T00:50:07;5.80;88.00
29093;DHT22;16167;48.768;14.984;2024-02-15T00:52:36;5.80;89.90
29093;DHT22;16167;48.768;14.984;2024-02-15T00:55:04;5.80;90.10
29093;DHT22;16167;48.768;14.984;2024-02-15T00:57:33;5.80;91.50
29093;DHT22;16167;48.768;14.984;2024-02-15T01:00:01;5.80;93.00
29093;DHT22;16167;48.768;14.984;2024-02-15T01:02:30;5.80;91.90
29093;DHT22;16167;48.768;14.984;2024-02-15T01:04:58;5.80;92.80
29093;DHT22;16167;48.768;14.984;2024-02-15T01:07:28;5.70;94.10
29093;DHT22;16167;48.768;14.984;2024-02-15T01:09:56;5.70;93.90
29093;DHT22;16167;48.768;14.984;2024-02-15T01:12:24;5.80;94.80
29093;DHT22;16167;48.768;14.984;2024-02-15T01:14:53;5.70;94.30
29093;DHT22;16167;48.768;14.984;2024-02-15T01:17:22;5.70;94.60
29093;DHT22;16167;48.768;14.984;2024-02-15T01:19:50;5.70;98.10
29093;DHT22;16167;48.768;14.984;2024-02-15T01:22:20;5.70;98.90
29093;DHT22;16167;48.768;14.984;2024-02-15T01:24:52;5.80;98.40
29093;DHT22;16167;48.768;14.984;2024-02-15T01:27:20;5.80;98.50
29093;DHT22;16167;48.768;14.984;2024-02-15T01:29:48;5.80;98.30
29093;DHT22;16167;48.768;14.984;2024-02-15T01:32:16;5.80;98.70
29093;DHT22;16167;48.768;14.984;2024-02-15T01:34:45;5.80;99.80
29093;DHT22;16167;48.768;14.984;2024-02-15T01:37:13;5.80;99.30
29093;DHT22;16167;48.768;14.984;2024-02-15T01:39:41;5.80;99.60
29093;DHT22;16167;48.768;14.984;2024-02-15T01:42:11;5.80;99.50
29093;DHT22;16167;48.768;14.984;2024-02-15T01:44:41;5.80;99.90
29093;DHT22;16167;48.768;14.984;2024-02-15T01:47:11;5.90;99.90
29093;DHT22;16167;48.768;14.984;2024-02-15T01:49:39;5.90;99.90
29093;DHT22;16167;48.768;14.984;2024-02-15T01:52:09;5.90;99.90
29093;DHT22;16167;48.768;14.984;2024-02-15T01:54:38;5.90;99.90
29093;DHT22;16167;48.768;14.984;2024-02-15T01:57:07;5.90;99.90
29093;DHT22;16167;48.768;14.984;2024-02-15T01:59:36;5.90;99.90
29093;DHT22;16167;48.768;14.984;2024-02-15T02:02:10;5.90;99.90
29093;DHT22;16167;48.768;14.984;2024-02-15T02:04:43;5.90;99.90
29093;DHT22;16167;48.768;14.984;2024-02-15T02:07:11;5.90;99.90
29093;DHT22;16167;48.768;14.984;2024-02-15T02:09:42;5.90;99.90
29093;DHT22;16167;48.768;14.984;2024-02-15T02:12:13;5.90;99.90
29093;DHT22;16167;48.768;14.984;2024-02-15T02:14:44;5.90;99.90
29093;DHT22;16167;48.768;14.984;2024-02-15T02:17:13;5.90;99.90
29093;DHT22;16167;48.768;14.984;2024-02-15T02:19:42;6.00;99.90
29093;DHT22;16167;48.768;14.984;2024-02-15T02:22:12;6.00;99.90
29093;DHT22;16167;48.768;14.984;2024-02-15T02:24:58;6.00;99.90
29093;DHT22;16167;48.768;14.984;2024-02-15T02:27:28;6.00;99.90
29093;DHT22;16167;48.768;14.984;2024-02-15T02:29:56;6.00;99.90
29093;DHT22;16167;48.768;14.984;2024-02-15T02:32:26;6.00;99.90
29093;DHT22;16167;48.768;14.984;2024-02-15T02:34:56;6.00;99.90
29093;DHT22;16167;48.768;14.984;2024-02-15T02:37:25;6.00;99.90
29093;DHT22;16167;48.768;14.984;2024-02-15T02:39:53;6.00;99.90
29093;DHT22;16167;48.768;14.984;2024-02-15T02:42:23;6.10;99.90
29093;DHT22;16167;48.768;14.984;2024-02-15T02:44:51;6.10;99.90
29093;DHT22;16167;48.768;14.984;2024-02-15T02:47:20;6.10;99.90
29093;DHT22;16167;48.768;14.984;2024-02-15T02:49:48;6.10;99.90
29093;DHT22;16167;48.768;14.984;2024-02-15T02:52:16;6.10;99.90
29093;DHT22;16167;48.768;14.984;2024-02-15T02:54:45;6.20;99.90
29093;DHT22;16167;48.768;14.984;2024-02-15T02:57:13;6.20;99.90
29093;DHT22;16167;48.768;14.984;2024-02-15T02:59:42;6.20;99.90
29093;DHT22;16167;48.768;14.984;2024-02-15T03:02:11;6.20;99.90
29093;DHT22;16167;48.768;14.984;2024-02-15T03:04:40;6.20;99.90
29093;DHT22;16167;48.768;14.984;2024-02-15T03:07:08;6.20;99.90
29093;DHT22;16167;48.768;14.984;2024-02-15T03:09:36;6.20;99.90
29093;DHT22;16167;48.768;14.984;2024-02-15T03:12:05;6.20;99.90
29093;DHT22;16167;48.768;14.984;2024-02-15T03:14:33;6.20;99.90
29093;DHT22;16167;48.768;14.984;2024-02-15T03:17:04;6.20;99.90
29093;DHT22;16167;48.768;14.984;2024-02-15T03:19:33;6.20;99.90
29093;DHT22;16167;48.768;14.984;2024-02-15T03:22:01;6.20;99.90
29093;DHT22;16167;48.768;14.984;2024-02-15T03:24:29;6.30;99.90
29093;DHT22;16167;48.768;14.984;2024-02-15T03:26:57;6.20;99.90
29093;DHT22;16167;48.768;14.984;2024-02-15T03:29:26;6.30;99.90
29093;DHT22;16167;48.768;14.984;2024-02-15T03:31:56;6.30;99.90
29093;DHT22;16167;48.768;14.984;2024-02-15T03:34:25;6.30;99.90
29093;DHT22;16167;48.768;14.984;2024-02-15T03:36:54;6.30;99.90
29093;DHT22;16167;48.768;14.984;2024-02-15T03:39:22;6.20;99.90
29093;DHT22;16167;48.768;14.984;2024-02-15T03:41:50;6.20;99.90
29093;DHT22;16167;48.768;14.984;2024-02-15T03:44:20;6.30;99.90
29093;DHT22;16167;48.768;14.984;2024-02-15T03:46:49;6.20;99.90
29093;DHT22;16167;48.768;14.984;2024-02-15T03:49:19;6.20;99.90
29093;DHT22;16167;48.768;14.984;2024-02-15T03:51:49;6.20;99.90
29093;DHT22;16167;48.768;14.984;2024-02-15T03:54:17;6.20;99.90
29093;DHT22;16167;48.768;14.984;2024-02-15T03:56:49;6.20;99.90
29093;DHT22;16167;48.768;14.984;2024-02-15T03:59:19;6.30;99.90
29093;DHT22;16167;48.768;14.984;2024-02-15T04:01:53;6.30;99.90
29093;DHT22;16167;48.768;14.984;2024-02-15T04:04:22;6.30;99.90
29093;DHT22;16167;48.768;14.984;2024-02-15T04:06:52;6.30;99.90
29093;DHT22;16167;48.768;14.984;2024-02-15T04:09:20;6.30;99.90
29093;DHT22;16167;48.768;14.984;2024-02-15T04:11:48;6.30;99.90
29093;DHT22;16167;48.768;14.984;2024-02-15T04:14:20;6.30;99.90
29093;DHT22;16167;48.768;14.984;2024-02-15T04:16:50;6.30;99.90
29093;DHT22;16167;48.768;14.984;2024-02-15T04:19:18;6.30;99.90
29093;DHT22;16167;48.768;14.984;2024-02-15T04:21:47;6.30;99.90
29093;DHT22;16167;48.768;14.984;2024-02-15T04:24:17;6.30;99.90
29093;DHT22;16167;48.768;14.984;2024-02-15T04:26:45;6.30;99.90
29093;DHT22;16167;48.768;14.984;2024-02-15T04:29:15;6.30;99.90
29093;DHT22;16167;48.768;14.984;2024-02-15T04:31:44;6.40;99.90
29093;DHT22;16167;48.768;14.984;2024-02-15T04:34:16;6.40;99.90
29093;DHT22;16167;48.768;14.984;2024-02-15T04:36:46;6.40;99.90
29093;DHT22;16167;48.768;14.984;2024-02-15T04:39:18;6.40;99.90
29093;DHT22;16167;48.768;14.984;2024-02-15T04:41:51;6.40;99.90
29093;DHT22;16167;48.768;14.984;2024-02-15T04:44:20;6.40;99.90
29093;DHT22;16167;48.768;14.984;2024-02-15T04:46:49;6.30;99.90
29093;DHT22;16167;48.768;14.984;2024-02-15T04:49:17;6.40;99.90
29093;DHT22;16167;48.768;14.984;2024-02-15T04:51:45;6.40;99.90
29093;DHT22;16167;48.768;14.984;2024-02-15T04:54:14;6.40;99.90
29093;DHT22;16167;48.768;14.984;2024-02-15T04:56:46;6.40;99.90
29093;DHT22;16167;48.768;14.984;2024-02-15T04:59:14;6.40;99.90
29093;DHT22;16167;48.768;14.984;2024-02-15T05:01:43;6.40;99.90
29093;DHT22;16167;48.768;14.984;2024-02-15T05:04:12;6.40;99.90
29093;DHT22;16167;48.768;14.984;2024-02-15T05:06:41;6.40;99.90
29093;DHT22;16167;48.768;14.984;2024-02-15T05:09:09;6.40;99.90
29093;DHT22;16167;48.768;14.984;2024-02-15T05:11:39;6.40;99.90
29093;DHT22;16167;48.768;14.984;2024-02-15T05:14:10;6.40;99.90
29093;DHT22;16167;48.768;14.984;2024-02-15T05:16:38;6.50;99.90
29093;DHT22;16167;48.768;14.984;2024-02-15T05:19:09;6.40;99.90
29093;DHT22;16167;48.768;14.984;2024-02-15T05:21:39;6.40;99.90
29093;DHT22;16167;48.768;14.984;2024-02-15T05:24:08;6.40;99.90
29093;DHT22;16167;48.768;14.984;2024-02-15T05:26:36;6.40;99.90
29093;DHT22;16167;48.768;14.984;2024-02-15T05:29:04;6.50;99.90
29093;DHT22;16167;48.768;14.984;2024-02-15T05:31:34;6.50;99.90
29093;DHT22;16167;48.768;14.984;2024-02-15T05:34:06;6.50;99.90
29093;DHT22;16167;48.768;14.984;2024-02-15T05:36:39;6.50;99.90
29093;DHT22;16167;48.768;14.984;2024-02-15T05:39:07;6.50;99.90
29093;DHT22;16167;48.768;14.984;2024-02-15T05:41:38;6.50;99.90
29093;DHT22;16167;48.768;14.984;2024-02-15T05:44:07;6.50;99.90
29093;DHT22;16167;48.768;14.984;2024-02-15T05:46:37;6.50;99.90
29093;DHT22;16167;48.768;14.984;2024-02-15T05:49:07;6.50;99.90
29093;DHT22;16167;48.768;14.984;2024-02-15T05:51:40;6.50;99.90
29093;DHT22;16167;48.768;14.984;2024-02-15T05:54:11;6.50;99.90
29093;DHT22;16167;48.768;14.984;2024-02-15T05:56:39;6.50;99.90
29093;DHT22;16167;48.768;14.984;2024-02-15T05:59:10;6.50;99.90
29093;DHT22;16167;48.768;14.984;2024-02-15T06:01:39;6.50;99.90
29093;DHT22;16167;48.768;14.984;2024-02-15T06:04:09;6.60;99.90
29093;DHT22;16167;48.768;14.984;2024-02-15T06:06:37;6.60;99.90
29093;DHT22;16167;48.768;14.984;2024-02-15T06:09:06;6.60;99.90
29093;DHT22;16167;48.768;14.984;2024-02-15T06:11:34;6.60;99.90
29093;DHT22;16167;48.768;14.984;2024-02-15T06:14:04;6.70;99.90
29093;DHT22;16167;48.768;14.984;2024-02-15T06:16:33;6.70;99.90
29093;DHT22;16167;48.768;14.984;2024-02-15T06:19:02;6.70;99.90
29093;DHT22;16167;48.768;14.984;2024-02-15T06:21:31;6.70;99.90
29093;DHT22;16167;48.768;14.984;2024-02-15T06:23:59;6.70;99.90
29093;DHT22;16167;48.768;14.984;2024-02-15T06:26:28;6.70;99.90
29093;DHT22;16167;48.768;14.984;2024-02-15T06:28:55;6.70;99.90
29093;DHT22;16167;48.768;14.984;2024-02-15T06:31:41;6.70;99.90
29093;DHT22;16167;48.768;14.984;2024-02-15T06:34:27;6.80;99.90
29093;DHT22;16167;48.768;14.984;2024-02-15T06:37:37;6.80;99.90
29093;DHT22;16167;48.768;14.984;2024-02-15T06:40:23;6.80;99.90
29093;DHT22;16167;48.768;14.984;2024-02-15T06:42:52;6.80;99.90
29093;DHT22;16167;48.768;14.984;2024-02-15T06:45:20;6.90;99.90
29093;DHT22;16167;48.768;14.984;2024-02-15T06:47:48;6.90;99.90
29093;DHT22;16167;48.768;14.984;2024-02-15T06:50:18;6.90;99.90
29093;DHT22;16167;48.768;14.984;2024-02-15T06:52:46;6.90;99.90
29093;DHT22;16167;48.768;14.984;2024-02-15T06:55:16;7.00;99.90
29093;DHT22;16167;48.768;14.984;2024-02-15T06:57:45;7.00;99.90
29093;DHT22;16167;48.768;14.984;2024-02-15T07:00:14;7.10;99.90
29093;DHT22;16167;48.768;14.984;2024-02-15T07:02:45;7.20;99.90
29093;DHT22;16167;48.768;14.984;2024-02-15T07:05:15;7.20;99.90
29093;DHT22;16167;48.768;14.984;2024-02-15T07:07:45;7.30;99.90
29093;DHT22;16167;48.768;14.984;2024-02-15T07:10:13;7.30;99.90
29093;DHT22;16167;48.768;14.984;2024-02-15T07:12:43;7.50;99.90
29093;DHT22;16167;48.768;14.984;2024-02-15T07:15:12;7.50;99.90
29093;DHT22;16167;48.768;14.984;2024-02-15T07:17:40;7.50;99.90
29093;DHT22;16167;48.768;14.984;2024-02-15T07:20:11;7.60;99.90
29093;DHT22;16167;48.768;14.984;2024-02-15T07:22:45;7.70;99.90
29093;DHT22;16167;48.768;14.984;2024-02-15T07:25:13;7.70;99.90
29093;DHT22;16167;48.768;14.984;2024-02-15T07:27:42;7.70;99.90
29093;DHT22;16167;48.768;14.984;2024-02-15T07:30:11;7.80;99.90
29093;DHT22;16167;48.768;14.984;2024-02-15T07:32:40;7.90;99.90
29093;DHT22;16167;48.768;14.984;2024-02-15T07:35:08;7.90;99.90
29093;DHT22;16167;48.768;14.984;2024-02-15T07:37:40;8.00;99.90
29093;DHT22;16167;48.768;14.984;2024-02-15T07:40:20;8.10;99.90
29093;DHT22;16167;48.768;14.984;2024-02-15T07:42:49;8.10;99.90
29093;DHT22;16167;48.768;14.984;2024-02-15T07:45:19;8.20;99.90
29093;DHT22;16167;48.768;14.984;2024-02-15T07:47:47;8.30;99.90
29093;DHT22;16167;48.768;14.984;2024-02-15T07:50:17;8.40;99.90
29093;DHT22;16167;48.768;14.984;2024-02-15T07:52:47;8.50;99.90
29093;DHT22;16167;48.768;14.984;2024-02-15T07:55:15;8.60;99.90
29093;DHT22;16167;48.768;14.984;2024-02-15T07:57:45;8.70;99.90
29093;DHT22;16167;48.768;14.984;2024-02-15T08:00:16;8.80;99.90
29093;DHT22;16167;48.768;14.984;2024-02-15T08:02:44;9.00;99.90
29093;DHT22;16167;48.768;14.984;2024-02-15T08:05:13;9.10;99.90
29093;DHT22;16167;48.768;14.984;2024-02-15T08:07:42;9.20;99.90
29093;DHT22;16167;48.768;14.984;2024-02-15T08:10:12;9.30;99.90
29093;DHT22;16167;48.768;14.984;2024-02-15T08:12:41;9.40;99.90
29093;DHT22;16167;48.768;14.984;2024-02-15T08:15:11;9.60;99.90
29093;DHT22;16167;48.768;14.984;2024-02-15T08:17:41;9.70;99.90
29093;DHT22;16167;48.768;14.984;2024-02-15T08:20:10;9.70;99.90
29093;DHT22;16167;48.768;14.984;2024-02-15T08:22:39;9.70;99.90
29093;DHT22;16167;48.768;14.984;2024-02-15T08:25:09;9.70;99.90
29093;DHT22;16167;48.768;14.984;2024-02-15T08:27:38;9.70;99.90
29093;DHT22;16167;48.768;14.984;2024-02-15T08:30:12;9.70;99.90
29093;DHT22;16167;48.768;14.984;2024-02-15T08:32:41;9.80;99.90
29093;DHT22;16167;48.768;14.984;2024-02-15T08:35:10;9.90;99.90
29093;DHT22;16167;48.768;14.984;2024-02-15T08:37:39;10.10;99.90
29093;DHT22;16167;48.768;14.984;2024-02-15T08:40:10;10.20;99.90
29093;DHT22;16167;48.768;14.984;2024-02-15T08:42:39;10.40;99.50
29093;DHT22;16167;48.768;14.984;2024-02-15T08:45:10;10.50;99.00
29093;DHT22;16167;48.768;14.984;2024-02-15T08:47:40;10.70;98.20
29093;DHT22;16167;48.768;14.984;2024-02-15T08:50:11;11.00;97.00
29093;DHT22;16167;48.768;14.984;2024-02-15T08:52:39;11.40;94.90
29093;DHT22;16167;48.768;14.984;2024-02-15T08:55:09;11.70;92.40
29093;DHT22;16167;48.768;14.984;2024-02-15T08:57:37;12.00;75.90
29093;DHT22;16167;48.768;14.984;2024-02-15T09:00:08;12.30;77.90
29093;DHT22;16167;48.768;14.984;2024-02-15T09:02:42;12.60;79.80
29093;DHT22;16167;48.768;14.984;2024-02-15T09:05:11;12.70;79.70
29093;DHT22;16167;48.768;14.984;2024-02-15T09:07:42;12.70;60.90
29093;DHT22;16167;48.768;14.984;2024-02-15T09:10:11;12.70;58.50
29093;DHT22;16167;48.768;14.984;2024-02-15T09:12:40;12.60;64.20
29093;DHT22;16167;48.768;14.984;2024-02-15T09:15:09;12.70;68.10
29093;DHT22;16167;48.768;14.984;2024-02-15T09:17:38;12.90;59.30
29093;DHT22;16167;48.768;14.984;2024-02-15T09:20:10;13.20;68.20
29093;DHT22;16167;48.768;14.984;2024-02-15T09:22:42;13.50;54.80
29093;DHT22;16167;48.768;14.984;2024-02-15T09:25:13;13.60;53.70
29093;DHT22;16167;48.768;14.984;2024-02-15T09:27:42;13.70;55.00
29093;DHT22;16167;48.768;14.984;2024-02-15T09:30:11;13.70;51.60
29093;DHT22;16167;48.768;14.984;2024-02-15T09:32:40;13.80;54.30
29093;DHT22;16167;48.768;14.984;2024-02-15T09:35:11;13.80;54.80
29093;DHT22;16167;48.768;14.984;2024-02-15T09:37:44;13.90;53.50
29093;DHT22;16167;48.768;14.984;2024-02-15T09:40:14;14.20;55.30
29093;DHT22;16167;48.768;14.984;2024-02-15T09:42:44;14.30;54.40
29093;DHT22;16167;48.768;14.984;2024-02-15T09:45:13;14.40;57.30
29093;DHT22;16167;48.768;14.984;2024-02-15T09:47:44;14.50;52.20
29093;DHT22;16167;48.768;14.984;2024-02-15T09:50:15;14.80;51.90
29093;DHT22;16167;48.768;14.984;2024-02-15T09:52:45;14.70;66.20
29093;DHT22;16167;48.768;14.984;2024-02-15T09:55:14;14.90;54.50
29093;DHT22;16167;48.768;14.984;2024-02-15T09:57:43;14.80;66.10
29093;DHT22;16167;48.768;14.984;2024-02-15T10:00:12;14.70;74.10
29093;DHT22;16167;48.768;14.984;2024-02-15T10:02:44;14.50;72.10
29093;DHT22;16167;48.768;14.984;2024-02-15T10:05:14;14.70;72.40
29093;DHT22;16167;48.768;14.984;2024-02-15T10:07:43;14.80;76.00
29093;DHT22;16167;48.768;14.984;2024-02-15T10:10:16;15.10;76.40
29093;DHT22;16167;48.768;14.984;2024-02-15T10:12:47;15.00;79.30
29093;DHT22;16167;48.768;14.984;2024-02-15T10:15:28;14.90;80.90
29093;DHT22;16167;48.768;14.984;2024-02-15T10:18:00;14.80;83.70
29093;DHT22;16167;48.768;14.984;2024-02-15T10:20:31;14.60;82.60
29093;DHT22;16167;48.768;14.984;2024-02-15T10:23:11;14.50;81.10
29093;DHT22;16167;48.768;14.984;2024-02-15T10:25:40;14.40;80.30
29093;DHT22;16167;48.768;14.984;2024-02-15T10:28:10;14.20;78.30
29093;DHT22;16167;48.768;14.984;2024-02-15T10:30:41;14.10;75.50
29093;DHT22;16167;48.768;14.984;2024-02-15T10:33:18;14.20;73.80
29093;DHT22;16167;48.768;14.984;2024-02-15T10:35:49;14.70;71.20
29093;DHT22;16167;48.768;14.984;2024-02-15T10:38:19;14.90;73.80
29093;DHT22;16167;48.768;14.984;2024-02-15T10:41:03;15.20;73.70
29093;DHT22;16167;48.768;14.984;2024-02-15T10:43:33;15.60;80.20
29093;DHT22;16167;48.768;14.984;2024-02-15T10:46:02;16.20;76.70
29093;DHT22;16167;48.768;14.984;2024-02-15T10:48:31;16.50;79.80
29093;DHT22;16167;48.768;14.984;2024-02-15T10:51:03;16.70;81.10
29093;DHT22;16167;48.768;14.984;2024-02-15T10:53:35;17.00;79.90
29093;DHT22;16167;48.768;14.984;2024-02-15T10:56:14;17.40;78.20
29093;DHT22;16167;48.768;14.984;2024-02-15T10:58:49;17.50;80.60
29093;DHT22;16167;48.768;14.984;2024-02-15T11:01:18;17.50;80.10
29093;DHT22;16167;48.768;14.984;2024-02-15T11:03:51;17.50;78.60
29093;DHT22;16167;48.768;14.984;2024-02-15T11:06:21;17.30;78.50
29093;DHT22;16167;48.768;14.984;2024-02-15T11:08:52;17.10;78.60
29093;DHT22;16167;48.768;14.984;2024-02-15T11:11:21;16.90;78.70
29093;DHT22;16167;48.768;14.984;2024-02-15T11:13:49;16.70;78.50
29093;DHT22;16167;48.768;14.984;2024-02-15T11:16:41;16.60;79.30
29093;DHT22;16167;48.768;14.984;2024-02-15T11:19:10;16.40;79.30
29093;DHT22;16167;48.768;14.984;2024-02-15T11:22:00;16.40;80.00
29093;DHT22;16167;48.768;14.984;2024-02-15T11:24:31;16.40;78.70
29093;DHT22;16167;48.768;14.984;2024-02-15T11:27:00;16.20;79.30
29093;DHT22;16167;48.768;14.984;2024-02-15T11:29:50;16.10;80.40
29093;DHT22;16167;48.768;14.984;2024-02-15T11:32:39;16.00;78.20
29093;DHT22;16167;48.768;14.984;2024-02-15T11:35:12;16.60;79.60
29093;DHT22;16167;48.768;14.984;2024-02-15T11:37:57;17.10;78.20
29093;DHT22;16167;48.768;14.984;2024-02-15T11:43:46;19.10;74.00
29093;DHT22;16167;48.768;14.984;2024-02-15T11:46:18;20.30;70.50
29093;DHT22;16167;48.768;14.984;2024-02-15T11:48:47;20.90;66.10
29093;DHT22;16167;48.768;14.984;2024-02-15T11:51:30;21.40;65.50
29093;DHT22;16167;48.768;14.984;2024-02-15T11:54:06;22.00;60.60
29093;DHT22;16167;48.768;14.984;2024-02-15T11:56:53;22.60;58.30
29093;DHT22;16167;48.768;14.984;2024-02-15T11:59:41;22.20;53.60
29093;DHT22;16167;48.768;14.984;2024-02-15T12:02:40;21.70;55.30
29093;DHT22;16167;48.768;14.984;2024-02-15T12:05:26;21.60;58.40
29093;DHT22;16167;48.768;14.984;2024-02-15T12:08:17;22.00;56.10
29093;DHT22;16167;48.768;14.984;2024-02-15T12:11:04;22.10;54.20
29093;DHT22;16167;48.768;14.984;2024-02-15T12:13:50;22.80;52.40
29093;DHT22;16167;48.768;14.984;2024-02-15T12:16:37;23.10;50.90
29093;DHT22;16167;48.768;14.984;2024-02-15T12:19:22;23.30;51.00
29093;DHT22;16167;48.768;14.984;2024-02-15T12:21:52;24.00;51.60
29093;DHT22;16167;48.768;14.984;2024-02-15T12:24:21;24.40;47.00
29093;DHT22;16167;48.768;14.984;2024-02-15T12:27:01;24.70;46.20
29093;DHT22;16167;48.768;14.984;2024-02-15T12:29:30;25.20;44.80
29093;DHT22;16167;48.768;14.984;2024-02-15T12:31:59;25.90;43.40
29093;DHT22;16167;48.768;14.984;2024-02-15T12:34:27;26.20;41.20
29093;DHT22;16167;48.768;14.984;2024-02-15T12:37:05;26.60;38.40
29093;DHT22;16167;48.768;14.984;2024-02-15T12:39:36;26.40;39.10
29093;DHT22;16167;48.768;14.984;2024-02-15T12:42:08;26.40;39.70
29093;DHT22;16167;48.768;14.984;2024-02-15T12:44:37;26.40;37.20
29093;DHT22;16167;48.768;14.984;2024-02-15T12:47:21;26.00;37.20
29093;DHT22;16167;48.768;14.984;2024-02-15T12:49:51;26.00;35.80
29093;DHT22;16167;48.768;14.984;2024-02-15T12:52:34;26.10;37.50
29093;DHT22;16167;48.768;14.984;2024-02-15T12:55:10;26.00;37.40
29093;DHT22;16167;48.768;14.984;2024-02-15T12:57:40;26.40;37.50
29093;DHT22;16167;48.768;14.984;2024-02-15T13:00:12;26.70;37.10
29093;DHT22;16167;48.768;14.984;2024-02-15T13:02:46;26.80;37.70
29093;DHT22;16167;48.768;14.984;2024-02-15T13:05:17;26.90;35.80
29093;DHT22;16167;48.768;14.984;2024-02-15T13:07:47;26.60;35.80
29093;DHT22;16167;48.768;14.984;2024-02-15T13:10:15;26.20;37.10
29093;DHT22;16167;48.768;14.984;2024-02-15T13:12:45;26.20;36.40
29093;DHT22;16167;48.768;14.984;2024-02-15T13:15:15;26.30;36.60
29093;DHT22;16167;48.768;14.984;2024-02-15T13:17:45;26.80;35.00
29093;DHT22;16167;48.768;14.984;2024-02-15T13:20:15;27.00;35.50
29093;DHT22;16167;48.768;14.984;2024-02-15T13:22:47;26.70;34.90
29093;DHT22;16167;48.768;14.984;2024-02-15T13:25:16;26.20;36.70
29093;DHT22;16167;48.768;14.984;2024-02-15T13:27:47;26.50;37.20
29093;DHT22;16167;48.768;14.984;2024-02-15T13:30:15;27.10;36.90
29093;DHT22;16167;48.768;14.984;2024-02-15T13:32:49;27.10;35.50
29093;DHT22;16167;48.768;14.984;2024-02-15T13:35:18;27.60;35.80
29093;DHT22;16167;48.768;14.984;2024-02-15T13:37:47;27.80;34.10
29093;DHT22;16167;48.768;14.984;2024-02-15T13:40:16;27.60;34.00
29093;DHT22;16167;48.768;14.984;2024-02-15T13:42:48;27.20;34.40
29093;DHT22;16167;48.768;14.984;2024-02-15T13:45:20;27.40;35.00
29093;DHT22;16167;48.768;14.984;2024-02-15T13:47:50;27.70;34.30
29093;DHT22;16167;48.768;14.984;2024-02-15T13:50:23;27.30;34.00
29093;DHT22;16167;48.768;14.984;2024-02-15T13:52:52;26.10;34.80
29093;DHT22;16167;48.768;14.984;2024-02-15T13:55:20;24.70;36.80
29093;DHT22;16167;48.768;14.984;2024-02-15T13:57:50;23.90;38.70
29093;DHT22;16167;48.768;14.984;2024-02-15T14:00:19;24.20;38.50
29093;DHT22;16167;48.768;14.984;2024-02-15T14:02:53;24.80;37.50
29093;DHT22;16167;48.768;14.984;2024-02-15T14:05:21;25.20;36.20
29093;DHT22;16167;48.768;14.984;2024-02-15T14:07:54;25.90;34.90
29093;DHT22;16167;48.768;14.984;2024-02-15T14:10:24;26.40;34.40
29093;DHT22;16167;48.768;14.984;2024-02-15T14:12:55;26.60;34.00
29093;DHT22;16167;48.768;14.984;2024-02-15T14:15:25;26.60;34.30
29093;DHT22;16167;48.768;14.984;2024-02-15T14:17:54;26.60;33.20
29093;DHT22;16167;48.768;14.984;2024-02-15T14:20:23;26.30;34.50
29093;DHT22;16167;48.768;14.984;2024-02-15T14:22:52;25.70;35.20
29093;DHT22;16167;48.768;14.984;2024-02-15T14:25:23;25.00;35.50
29093;DHT22;16167;48.768;14.984;2024-02-15T14:27:55;24.50;36.40
29093;DHT22;16167;48.768;14.984;2024-02-15T14:30:24;23.90;38.40
29093;DHT22;16167;48.768;14.984;2024-02-15T14:33:10;23.40;38.90
29093;DHT22;16167;48.768;14.984;2024-02-15T14:35:49;23.00;38.80
29093;DHT22;16167;48.768;14.984;2024-02-15T14:38:20;22.80;40.40
29093;DHT22;16167;48.768;14.984;2024-02-15T14:40:49;22.50;40.50
29093;DHT22;16167;48.768;14.984;2024-02-15T14:43:23;22.00;40.90
29093;DHT22;16167;48.768;14.984;2024-02-15T14:45:53;21.40;42.70
29093;DHT22;16167;48.768;14.984;2024-02-15T14:48:23;20.80;44.10
29093;DHT22;16167;48.768;14.984;2024-02-15T14:50:53;20.40;43.60
29093;DHT22;16167;48.768;14.984;2024-02-15T14:53:23;20.00;45.00
29093;DHT22;16167;48.768;14.984;2024-02-15T14:55:52;19.50;46.20
29093;DHT22;16167;48.768;14.984;2024-02-15T14:58:22;19.00;47.60
29093;DHT22;16167;48.768;14.984;2024-02-15T15:00:50;18.80;48.30
29093;DHT22;16167;48.768;14.984;2024-02-15T15:03:30;18.60;48.50
29093;DHT22;16167;48.768;14.984;2024-02-15T15:05:59;18.30;49.50
29093;DHT22;16167;48.768;14.984;2024-02-15T15:08:45;18.00;50.10
29093;DHT22;16167;48.768;14.984;2024-02-15T15:11:32;17.80;51.20
29093;DHT22;16167;48.768;14.984;2024-02-15T15:14:18;17.60;52.40
29093;DHT22;16167;48.768;14.984;2024-02-15T15:16:47;17.40;52.70
29093;DHT22;16167;48.768;14.984;2024-02-15T15:19:16;17.40;53.30
29093;DHT22;16167;48.768;14.984;2024-02-15T15:21:45;17.30;53.90
29093;DHT22;16167;48.768;14.984;2024-02-15T15:24:13;17.00;55.00
29093;DHT22;16167;48.768;14.984;2024-02-15T15:26:42;16.70;56.00
29093;DHT22;16167;48.768;14.984;2024-02-15T15:29:10;16.40;57.50
29093;DHT22;16167;48.768;14.984;2024-02-15T15:31:40;16.30;58.40
29093;DHT22;16167;48.768;14.984;2024-02-15T15:34:08;16.20;59.40
29093;DHT22;16167;48.768;14.984;2024-02-15T15:36:37;16.10;59.90
29093;DHT22;16167;48.768;14.984;2024-02-15T15:39:06;16.00;61.70
29093;DHT22;16167;48.768;14.984;2024-02-15T15:41:37;15.80;62.50
29093;DHT22;16167;48.768;14.984;2024-02-15T15:44:06;15.60;63.80
29093;DHT22;16167;48.768;14.984;2024-02-15T15:46:34;15.40;64.80
29093;DHT22;16167;48.768;14.984;2024-02-15T15:49:04;15.10;66.70
29093;DHT22;16167;48.768;14.984;2024-02-15T15:51:33;15.00;68.10